sensor_id;sensor_type;location;lat;lon;timestamp;P1;durP1;ratioP1;P2;durP2;ratioP2
4724;SDS011;2376;53.544;10.226;2023-10-31T00:00:35;7.50;;;4.10;;
4724;SDS011;2376;53.544;10.226;2023-10-31T00:03:01;6.57;;;4.77;;
4724;SDS011;2376;53.544;10.226;2023-10-31T00:05:28;5.13;;;4.70;;
4724;SDS011;2376;53.544;10.226;2023-10-31T00:07:56;5.90;;;4.60;;
4724;SDS011;2376;53.544;10.226;2023-10-31T00:10:23;4.13;;;3.83;;
4724;SDS011;2376;53.544;10.226;2023-10-31T00:12:50;4.17;;;3.87;;
4724;SDS011;2376;53.544;10.226;2023-10-31T00:15:16;5.20;;;4.70;;
4724;SDS011;2376;53.544;10.226;2023-10-31T00:17:43;5.07;;;4.67;;
4724;SDS011;2376;53.544;10.226;2023-10-31T00:20:10;5.10;;;4.27;;
4724;SDS011;2376;53.544;10.226;2023-10-31T00:22:37;6.07;;;5.47;;
4724;SDS011;2376;53.544;10.226;2023-10-31T00:25:05;4.53;;;4.17;;
4724;SDS011;2376;53.544;10.226;2023-10-31T00:27:32;5.80;;;4.73;;
4724;SDS011;2376;53.544;10.226;2023-10-31T00:29:59;4.13;;;3.80;;
4724;SDS011;2376;53.544;10.226;2023-10-31T00:32:25;5.00;;;4.60;;
4724;SDS011;2376;53.544;10.226;2023-10-31T00:34:52;3.87;;;3.57;;
4724;SDS011;2376;53.544;10.226;2023-10-31T00:37:19;8.00;;;4.77;;
4724;SDS011;2376;53.544;10.226;2023-10-31T00:39:46;7.53;;;5.00;;
4724;SDS011;2376;53.544;10.226;2023-10-31T00:42:14;7.50;;;3.97;;
4724;SDS011;2376;53.544;10.226;2023-10-31T00:44:40;4.83;;;4.27;;
4724;SDS011;2376;53.544;10.226;2023-10-31T00:47:07;4.10;;;3.70;;
4724;SDS011;2376;53.544;10.226;2023-10-31T00:49:34;4.43;;;3.97;;
4724;SDS011;2376;53.544;10.226;2023-10-31T00:52:01;8.73;;;4.60;;
4724;SDS011;2376;53.544;10.226;2023-10-31T00:54:28;5.23;;;4.30;;
4724;SDS011;2376;53.544;10.226;2023-10-31T00:56:55;3.90;;;3.57;;
4724;SDS011;2376;53.544;10.226;2023-10-31T00:59:23;4.03;;;3.73;;
4724;SDS011;2376;53.544;10.226;2023-10-31T01:01:49;4.10;;;3.20;;
4724;SDS011;2376;53.544;10.226;2023-10-31T01:04:16;3.93;;;3.70;;
4724;SDS011;2376;53.544;10.226;2023-10-31T01:06:43;4.10;;;3.80;;
4724;SDS011;2376;53.544;10.226;2023-10-31T01:09:10;4.40;;;3.60;;
4724;SDS011;2376;53.544;10.226;2023-10-31T01:11:38;4.00;;;3.70;;
4724;SDS011;2376;53.544;10.226;2023-10-31T01:14:04;4.50;;;3.40;;
4724;SDS011;2376;53.544;10.226;2023-10-31T01:16:32;8.10;;;3.20;;
4724;SDS011;2376;53.544;10.226;2023-10-31T01:18:59;4.27;;;3.97;;
4724;SDS011;2376;53.544;10.226;2023-10-31T01:21:26;10.70;;;4.40;;
4724;SDS011;2376;53.544;10.226;2023-10-31T01:23:53;4.17;;;3.83;;
4724;SDS011;2376;53.544;10.226;2023-10-31T01:26:19;6.80;;;3.90;;
4724;SDS011;2376;53.544;10.226;2023-10-31T01:28:46;5.63;;;4.67;;
4724;SDS011;2376;53.544;10.226;2023-10-31T01:31:13;4.37;;;3.77;;
4724;SDS011;2376;53.544;10.226;2023-10-31T01:33:41;5.63;;;4.00;;
4724;SDS011;2376;53.544;10.226;2023-10-31T01:36:08;3.43;;;3.23;;
4724;SDS011;2376;53.544;10.226;2023-10-31T01:38:37;4.50;;;4.13;;
4724;SDS011;2376;53.544;10.226;2023-10-31T01:41:04;3.90;;;3.50;;
4724;SDS011;2376;53.544;10.226;2023-10-31T01:43:31;6.43;;;3.40;;
4724;SDS011;2376;53.544;10.226;2023-10-31T01:45:59;3.33;;;3.13;;
4724;SDS011;2376;53.544;10.226;2023-10-31T01:48:26;5.23;;;3.80;;
4724;SDS011;2376;53.544;10.226;2023-10-31T01:50:56;8.30;;;3.93;;
4724;SDS011;2376;53.544;10.226;2023-10-31T01:53:24;3.73;;;3.53;;
4724;SDS011;2376;53.544;10.226;2023-10-31T01:55:52;5.13;;;4.00;;
4724;SDS011;2376;53.544;10.226;2023-10-31T01:58:20;4.63;;;3.80;;
4724;SDS011;2376;53.544;10.226;2023-10-31T02:00:49;4.30;;;4.00;;
4724;SDS011;2376;53.544;10.226;2023-10-31T02:03:17;6.30;;;4.23;;
4724;SDS011;2376;53.544;10.226;2023-10-31T02:05:44;6.67;;;4.90;;
4724;SDS011;2376;53.544;10.226;2023-10-31T02:08:13;9.00;;;4.67;;
4724;SDS011;2376;53.544;10.226;2023-10-31T02:10:40;13.87;;;5.13;;
4724;SDS011;2376;53.544;10.226;2023-10-31T02:13:10;9.43;;;5.10;;
4724;SDS011;2376;53.544;10.226;2023-10-31T02:15:37;4.67;;;4.27;;
4724;SDS011;2376;53.544;10.226;2023-10-31T02:18:05;9.43;;;5.67;;
4724;SDS011;2376;53.544;10.226;2023-10-31T02:20:32;11.00;;;5.10;;
4724;SDS011;2376;53.544;10.226;2023-10-31T02:23:00;6.20;;;4.90;;
4724;SDS011;2376;53.544;10.226;2023-10-31T02:25:27;4.90;;;4.60;;
4724;SDS011;2376;53.544;10.226;2023-10-31T02:27:54;7.77;;;6.10;;
4724;SDS011;2376;53.544;10.226;2023-10-31T02:30:21;5.80;;;5.40;;
4724;SDS011;2376;53.544;10.226;2023-10-31T02:32:48;5.70;;;5.30;;
4724;SDS011;2376;53.544;10.226;2023-10-31T02:35:15;7.20;;;5.20;;
4724;SDS011;2376;53.544;10.226;2023-10-31T02:37:42;5.73;;;5.23;;
4724;SDS011;2376;53.544;10.226;2023-10-31T02:40:11;6.63;;;6.03;;
4724;SDS011;2376;53.544;10.226;2023-10-31T02:42:38;7.30;;;6.30;;
4724;SDS011;2376;53.544;10.226;2023-10-31T02:45:05;6.90;;;6.30;;
4724;SDS011;2376;53.544;10.226;2023-10-31T02:47:33;10.97;;;6.30;;
4724;SDS011;2376;53.544;10.226;2023-10-31T02:49:59;7.17;;;6.47;;
4724;SDS011;2376;53.544;10.226;2023-10-31T02:52:26;6.87;;;6.07;;
4724;SDS011;2376;53.544;10.226;2023-10-31T02:54:53;7.87;;;7.27;;
4724;SDS011;2376;53.544;10.226;2023-10-31T02:57:21;6.70;;;5.60;;
4724;SDS011;2376;53.544;10.226;2023-10-31T02:59:48;7.10;;;6.60;;
4724;SDS011;2376;53.544;10.226;2023-10-31T03:02:14;8.03;;;7.33;;
4724;SDS011;2376;53.544;10.226;2023-10-31T03:04:41;8.13;;;6.97;;
4724;SDS011;2376;53.544;10.226;2023-10-31T03:07:08;8.13;;;7.33;;
4724;SDS011;2376;53.544;10.226;2023-10-31T03:09:35;8.07;;;7.37;;
4724;SDS011;2376;53.544;10.226;2023-10-31T03:12:02;7.13;;;6.50;;
4724;SDS011;2376;53.544;10.226;2023-10-31T03:14:30;9.03;;;8.23;;
4724;SDS011;2376;53.544;10.226;2023-10-31T03:16:57;8.00;;;7.13;;
4724;SDS011;2376;53.544;10.226;2023-10-31T03:19:23;9.17;;;8.40;;
4724;SDS011;2376;53.544;10.226;2023-10-31T03:21:50;8.30;;;7.63;;
4724;SDS011;2376;53.544;10.226;2023-10-31T03:24:17;9.50;;;8.50;;
4724;SDS011;2376;53.544;10.226;2023-10-31T03:26:43;11.20;;;9.47;;
4724;SDS011;2376;53.544;10.226;2023-10-31T03:29:10;9.77;;;8.90;;
4724;SDS011;2376;53.544;10.226;2023-10-31T03:31:38;9.43;;;8.53;;
4724;SDS011;2376;53.544;10.226;2023-10-31T03:34:05;9.10;;;8.30;;
4724;SDS011;2376;53.544;10.226;2023-10-31T03:36:32;9.77;;;8.93;;
4724;SDS011;2376;53.544;10.226;2023-10-31T03:38:59;10.43;;;9.43;;
4724;SDS011;2376;53.544;10.226;2023-10-31T03:41:25;13.60;;;9.70;;
4724;SDS011;2376;53.544;10.226;2023-10-31T03:43:52;10.00;;;9.00;;
4724;SDS011;2376;53.544;10.226;2023-10-31T03:46:19;9.83;;;8.87;;
4724;SDS011;2376;53.544;10.226;2023-10-31T03:48:47;11.60;;;9.47;;
4724;SDS011;2376;53.544;10.226;2023-10-31T03:51:13;11.47;;;8.90;;
4724;SDS011;2376;53.544;10.226;2023-10-31T03:53:40;10.73;;;9.60;;
4724;SDS011;2376;53.544;10.226;2023-10-31T03:56:07;10.77;;;9.87;;
4724;SDS011;2376;53.544;10.226;2023-10-31T03:58:33;11.67;;;8.37;;
4724;SDS011;2376;53.544;10.226;2023-10-31T04:01:00;9.40;;;8.60;;
4724;SDS011;2376;53.544;10.226;2023-10-31T04:03:27;11.03;;;8.67;;
4724;SDS011;2376;53.544;10.226;2023-10-31T04:05:55;9.60;;;8.70;;
4724;SDS011;2376;53.544;10.226;2023-10-31T04:08:22;9.53;;;8.77;;
4724;SDS011;2376;53.544;10.226;2023-10-31T04:10:49;10.97;;;8.57;;
4724;SDS011;2376;53.544;10.226;2023-10-31T04:13:15;10.03;;;9.13;;
4724;SDS011;2376;53.544;10.226;2023-10-31T04:15:42;9.77;;;8.77;;
4724;SDS011;2376;53.544;10.226;2023-10-31T04:18:08;10.50;;;9.53;;
4724;SDS011;2376;53.544;10.226;2023-10-31T04:20:35;9.93;;;8.93;;
4724;SDS011;2376;53.544;10.226;2023-10-31T04:23:03;12.43;;;9.07;;
4724;SDS011;2376;53.544;10.226;2023-10-31T04:25:30;13.63;;;9.87;;
4724;SDS011;2376;53.544;10.226;2023-10-31T04:27:57;9.43;;;8.53;;
4724;SDS011;2376;53.544;10.226;2023-10-31T04:30:24;9.40;;;8.50;;
4724;SDS011;2376;53.544;10.226;2023-10-31T04:32:51;10.80;;;8.67;;
4724;SDS011;2376;53.544;10.226;2023-10-31T04:35:18;14.80;;;8.90;;
4724;SDS011;2376;53.544;10.226;2023-10-31T04:37:44;10.30;;;9.40;;
4724;SDS011;2376;53.544;10.226;2023-10-31T04:40:13;9.93;;;9.03;;
4724;SDS011;2376;53.544;10.226;2023-10-31T04:42:40;9.67;;;8.67;;
4724;SDS011;2376;53.544;10.226;2023-10-31T04:45:07;10.23;;;9.23;;
4724;SDS011;2376;53.544;10.226;2023-10-31T04:47:34;9.83;;;9.03;;
4724;SDS011;2376;53.544;10.226;2023-10-31T04:50:01;9.43;;;8.50;;
4724;SDS011;2376;53.544;10.226;2023-10-31T04:52:28;9.17;;;8.17;;
4724;SDS011;2376;53.544;10.226;2023-10-31T04:54:55;10.60;;;9.50;;
4724;SDS011;2376;53.544;10.226;2023-10-31T04:57:23;14.40;;;10.33;;
4724;SDS011;2376;53.544;10.226;2023-10-31T04:59:49;10.90;;;9.80;;
4724;SDS011;2376;53.544;10.226;2023-10-31T05:02:20;11.93;;;10.63;;
4724;SDS011;2376;53.544;10.226;2023-10-31T05:04:48;13.20;;;11.03;;
4724;SDS011;2376;53.544;10.226;2023-10-31T05:07:16;12.00;;;10.87;;
4724;SDS011;2376;53.544;10.226;2023-10-31T05:09:42;12.70;;;10.63;;
4724;SDS011;2376;53.544;10.226;2023-10-31T05:12:09;14.73;;;10.53;;
4724;SDS011;2376;53.544;10.226;2023-10-31T05:14:37;11.00;;;9.90;;
4724;SDS011;2376;53.544;10.226;2023-10-31T05:17:05;11.90;;;10.67;;
4724;SDS011;2376;53.544;10.226;2023-10-31T05:19:32;12.70;;;10.53;;
4724;SDS011;2376;53.544;10.226;2023-10-31T05:21:59;12.23;;;9.03;;
4724;SDS011;2376;53.544;10.226;2023-10-31T05:24:25;9.87;;;8.60;;
4724;SDS011;2376;53.544;10.226;2023-10-31T05:26:52;11.63;;;10.10;;
4724;SDS011;2376;53.544;10.226;2023-10-31T05:29:19;10.20;;;8.93;;
4724;SDS011;2376;53.544;10.226;2023-10-31T05:31:47;10.53;;;9.37;;
4724;SDS011;2376;53.544;10.226;2023-10-31T05:34:14;10.63;;;9.47;;
4724;SDS011;2376;53.544;10.226;2023-10-31T05:36:41;14.53;;;10.40;;
4724;SDS011;2376;53.544;10.226;2023-10-31T05:39:07;12.10;;;10.07;;
4724;SDS011;2376;53.544;10.226;2023-10-31T05:41:34;14.33;;;9.80;;
4724;SDS011;2376;53.544;10.226;2023-10-31T05:44:01;12.97;;;10.57;;
4724;SDS011;2376;53.544;10.226;2023-10-31T05:46:28;16.33;;;11.93;;
4724;SDS011;2376;53.544;10.226;2023-10-31T05:48:56;14.10;;;10.30;;
4724;SDS011;2376;53.544;10.226;2023-10-31T05:51:23;12.63;;;10.93;;
4724;SDS011;2376;53.544;10.226;2023-10-31T05:53:51;13.60;;;11.33;;
4724;SDS011;2376;53.544;10.226;2023-10-31T05:56:18;12.20;;;10.70;;
4724;SDS011;2376;53.544;10.226;2023-10-31T05:58:45;12.50;;;10.33;;
4724;SDS011;2376;53.544;10.226;2023-10-31T06:01:11;15.97;;;12.47;;
4724;SDS011;2376;53.544;10.226;2023-10-31T06:03:40;12.63;;;11.23;;
4724;SDS011;2376;53.544;10.226;2023-10-31T06:06:10;13.77;;;11.90;;
4724;SDS011;2376;53.544;10.226;2023-10-31T06:08:37;14.77;;;11.73;;
4724;SDS011;2376;53.544;10.226;2023-10-31T06:11:04;12.20;;;10.83;;
4724;SDS011;2376;53.544;10.226;2023-10-31T06:13:31;17.20;;;11.13;;
4724;SDS011;2376;53.544;10.226;2023-10-31T06:15:57;12.80;;;10.37;;
4724;SDS011;2376;53.544;10.226;2023-10-31T06:18:26;14.83;;;10.50;;
4724;SDS011;2376;53.544;10.226;2023-10-31T06:20:53;13.63;;;10.40;;
4724;SDS011;2376;53.544;10.226;2023-10-31T06:23:21;11.90;;;9.63;;
4724;SDS011;2376;53.544;10.226;2023-10-31T06:25:47;10.43;;;8.70;;
4724;SDS011;2376;53.544;10.226;2023-10-31T06:28:14;9.57;;;7.80;;
4724;SDS011;2376;53.544;10.226;2023-10-31T06:30:41;10.27;;;7.60;;
4724;SDS011;2376;53.544;10.226;2023-10-31T06:33:08;7.60;;;6.90;;
4724;SDS011;2376;53.544;10.226;2023-10-31T06:35:35;5.90;;;5.40;;
4724;SDS011;2376;53.544;10.226;2023-10-31T06:38:02;6.90;;;5.60;;
4724;SDS011;2376;53.544;10.226;2023-10-31T06:40:30;6.70;;;5.13;;
4724;SDS011;2376;53.544;10.226;2023-10-31T06:42:57;5.70;;;5.30;;
4724;SDS011;2376;53.544;10.226;2023-10-31T06:45:24;5.93;;;5.43;;
4724;SDS011;2376;53.544;10.226;2023-10-31T06:47:50;8.43;;;6.20;;
4724;SDS011;2376;53.544;10.226;2023-10-31T06:50:18;7.00;;;6.40;;
4724;SDS011;2376;53.544;10.226;2023-10-31T06:52:44;7.40;;;6.80;;
4724;SDS011;2376;53.544;10.226;2023-10-31T06:55:11;7.87;;;7.07;;
4724;SDS011;2376;53.544;10.226;2023-10-31T06:57:39;8.37;;;6.70;;
4724;SDS011;2376;53.544;10.226;2023-10-31T07:00:06;6.70;;;6.10;;
4724;SDS011;2376;53.544;10.226;2023-10-31T07:02:34;6.57;;;6.00;;
4724;SDS011;2376;53.544;10.226;2023-10-31T07:05:01;5.53;;;5.13;;
4724;SDS011;2376;53.544;10.226;2023-10-31T07:07:28;5.50;;;5.03;;
4724;SDS011;2376;53.544;10.226;2023-10-31T07:09:55;4.87;;;4.57;;
4724;SDS011;2376;53.544;10.226;2023-10-31T07:12:22;2.60;;;2.50;;
4724;SDS011;2376;53.544;10.226;2023-10-31T07:14:50;3.00;;;2.90;;
4724;SDS011;2376;53.544;10.226;2023-10-31T07:17:16;2.70;;;2.50;;
4724;SDS011;2376;53.544;10.226;2023-10-31T07:19:43;2.30;;;2.20;;
4724;SDS011;2376;53.544;10.226;2023-10-31T07:22:10;2.50;;;2.40;;
4724;SDS011;2376;53.544;10.226;2023-10-31T07:24:36;2.30;;;2.10;;
4724;SDS011;2376;53.544;10.226;2023-10-31T07:27:03;2.90;;;2.80;;
4724;SDS011;2376;53.544;10.226;2023-10-31T07:29:30;3.40;;;3.20;;
4724;SDS011;2376;53.544;10.226;2023-10-31T07:31:58;3.50;;;3.30;;
4724;SDS011;2376;53.544;10.226;2023-10-31T07:34:25;3.77;;;3.10;;
4724;SDS011;2376;53.544;10.226;2023-10-31T07:36:51;4.33;;;3.87;;
4724;SDS011;2376;53.544;10.226;2023-10-31T07:39:18;7.53;;;4.37;;
4724;SDS011;2376;53.544;10.226;2023-10-31T07:41:45;5.87;;;5.27;;
4724;SDS011;2376;53.544;10.226;2023-10-31T07:44:11;7.97;;;7.17;;
4724;SDS011;2376;53.544;10.226;2023-10-31T07:46:38;12.63;;;8.93;;
4724;SDS011;2376;53.544;10.226;2023-10-31T07:49:06;12.37;;;9.87;;
4724;SDS011;2376;53.544;10.226;2023-10-31T07:51:33;11.10;;;10.00;;
4724;SDS011;2376;53.544;10.226;2023-10-31T07:53:59;11.37;;;9.50;;
4724;SDS011;2376;53.544;10.226;2023-10-31T07:56:40;11.43;;;8.83;;
4724;SDS011;2376;53.544;10.226;2023-10-31T07:59:08;10.47;;;8.20;;
4724;SDS011;2376;53.544;10.226;2023-10-31T08:01:36;10.17;;;9.07;;
4724;SDS011;2376;53.544;10.226;2023-10-31T08:04:03;8.43;;;7.50;;
4724;SDS011;2376;53.544;10.226;2023-10-31T08:06:31;4.90;;;4.50;;
4724;SDS011;2376;53.544;10.226;2023-10-31T08:08:58;4.90;;;4.50;;
4724;SDS011;2376;53.544;10.226;2023-10-31T08:11:25;3.80;;;3.50;;
4724;SDS011;2376;53.544;10.226;2023-10-31T08:13:52;9.13;;;2.83;;
4724;SDS011;2376;53.544;10.226;2023-10-31T08:16:19;2.57;;;1.70;;
4724;SDS011;2376;53.544;10.226;2023-10-31T08:18:46;1.87;;;1.77;;
4724;SDS011;2376;53.544;10.226;2023-10-31T08:21:12;1.57;;;1.47;;
4724;SDS011;2376;53.544;10.226;2023-10-31T08:23:40;1.87;;;1.77;;
4724;SDS011;2376;53.544;10.226;2023-10-31T08:26:09;5.73;;;5.43;;
4724;SDS011;2376;53.544;10.226;2023-10-31T08:28:37;2.83;;;2.73;;
4724;SDS011;2376;53.544;10.226;2023-10-31T08:31:04;7.73;;;2.90;;
4724;SDS011;2376;53.544;10.226;2023-10-31T08:33:31;1.60;;;1.50;;
4724;SDS011;2376;53.544;10.226;2023-10-31T08:35:58;1.20;;;1.10;;
4724;SDS011;2376;53.544;10.226;2023-10-31T08:38:26;0.90;;;0.90;;
4724;SDS011;2376;53.544;10.226;2023-10-31T08:40:54;1.90;;;0.93;;
4724;SDS011;2376;53.544;10.226;2023-10-31T08:43:21;1.10;;;0.90;;
4724;SDS011;2376;53.544;10.226;2023-10-31T08:45:48;0.70;;;0.70;;
4724;SDS011;2376;53.544;10.226;2023-10-31T08:48:15;0.93;;;0.90;;
4724;SDS011;2376;53.544;10.226;2023-10-31T08:50:41;0.90;;;0.90;;
4724;SDS011;2376;53.544;10.226;2023-10-31T08:53:09;0.80;;;0.80;;
4724;SDS011;2376;53.544;10.226;2023-10-31T08:55:36;1.23;;;1.23;;
4724;SDS011;2376;53.544;10.226;2023-10-31T08:58:05;1.10;;;1.10;;
4724;SDS011;2376;53.544;10.226;2023-10-31T09:00:31;0.90;;;0.90;;
4724;SDS011;2376;53.544;10.226;2023-10-31T09:02:58;0.77;;;0.77;;
4724;SDS011;2376;53.544;10.226;2023-10-31T09:05:25;1.07;;;0.97;;
4724;SDS011;2376;53.544;10.226;2023-10-31T09:07:51;5.40;;;5.10;;
4724;SDS011;2376;53.544;10.226;2023-10-31T09:10:18;5.00;;;4.80;;
4724;SDS011;2376;53.544;10.226;2023-10-31T09:12:45;1.80;;;1.80;;
4724;SDS011;2376;53.544;10.226;2023-10-31T09:15:13;0.90;;;0.90;;
4724;SDS011;2376;53.544;10.226;2023-10-31T09:17:39;0.87;;;0.87;;
4724;SDS011;2376;53.544;10.226;2023-10-31T09:20:07;0.63;;;0.63;;
4724;SDS011;2376;53.544;10.226;2023-10-31T09:22:34;0.73;;;0.73;;
4724;SDS011;2376;53.544;10.226;2023-10-31T09:25:01;1.10;;;1.10;;
4724;SDS011;2376;53.544;10.226;2023-10-31T09:27:28;1.07;;;1.07;;
4724;SDS011;2376;53.544;10.226;2023-10-31T09:29:54;1.87;;;1.77;;
4724;SDS011;2376;53.544;10.226;2023-10-31T09:32:22;2.90;;;1.57;;
4724;SDS011;2376;53.544;10.226;2023-10-31T09:34:49;1.20;;;1.20;;
4724;SDS011;2376;53.544;10.226;2023-10-31T09:37:16;1.27;;;1.27;;
4724;SDS011;2376;53.544;10.226;2023-10-31T09:39:43;1.20;;;1.10;;
4724;SDS011;2376;53.544;10.226;2023-10-31T09:42:09;1.80;;;1.70;;
4724;SDS011;2376;53.544;10.226;2023-10-31T09:44:36;1.90;;;1.30;;
4724;SDS011;2376;53.544;10.226;2023-10-31T09:47:03;1.40;;;1.30;;
4724;SDS011;2376;53.544;10.226;2023-10-31T09:49:33;1.53;;;1.43;;
4724;SDS011;2376;53.544;10.226;2023-10-31T09:52:00;1.33;;;1.23;;
4724;SDS011;2376;53.544;10.226;2023-10-31T09:54:28;0.80;;;0.80;;
4724;SDS011;2376;53.544;10.226;2023-10-31T09:56:56;1.00;;;1.00;;
4724;SDS011;2376;53.544;10.226;2023-10-31T09:59:22;0.63;;;0.63;;
4724;SDS011;2376;53.544;10.226;2023-10-31T10:01:49;0.90;;;0.90;;
4724;SDS011;2376;53.544;10.226;2023-10-31T10:04:16;0.90;;;0.90;;
4724;SDS011;2376;53.544;10.226;2023-10-31T10:06:52;0.80;;;0.80;;
4724;SDS011;2376;53.544;10.226;2023-10-31T10:09:24;0.63;;;0.63;;
4724;SDS011;2376;53.544;10.226;2023-10-31T10:11:51;0.70;;;0.70;;
4724;SDS011;2376;53.544;10.226;2023-10-31T10:14:18;0.70;;;0.70;;
4724;SDS011;2376;53.544;10.226;2023-10-31T10:16:45;1.10;;;0.70;;
4724;SDS011;2376;53.544;10.226;2023-10-31T10:19:15;0.70;;;0.70;;
4724;SDS011;2376;53.544;10.226;2023-10-31T10:21:48;3.70;;;0.83;;
4724;SDS011;2376;53.544;10.226;2023-10-31T10:24:17;4.70;;;1.20;;
4724;SDS011;2376;53.544;10.226;2023-10-31T10:26:44;0.83;;;0.83;;
4724;SDS011;2376;53.544;10.226;2023-10-31T10:29:11;0.67;;;0.67;;
4724;SDS011;2376;53.544;10.226;2023-10-31T10:31:38;0.80;;;0.80;;
4724;SDS011;2376;53.544;10.226;2023-10-31T10:34:05;0.83;;;0.70;;
4724;SDS011;2376;53.544;10.226;2023-10-31T10:36:32;0.80;;;0.70;;
4724;SDS011;2376;53.544;10.226;2023-10-31T10:38:59;2.30;;;0.80;;
4724;SDS011;2376;53.544;10.226;2023-10-31T10:41:28;1.00;;;0.90;;
4724;SDS011;2376;53.544;10.226;2023-10-31T10:43:56;0.70;;;0.70;;
4724;SDS011;2376;53.544;10.226;2023-10-31T10:46:30;0.67;;;0.67;;
4724;SDS011;2376;53.544;10.226;2023-10-31T10:49:01;0.90;;;0.90;;
4724;SDS011;2376;53.544;10.226;2023-10-31T10:51:34;1.10;;;1.00;;
4724;SDS011;2376;53.544;10.226;2023-10-31T10:54:11;0.80;;;0.80;;
4724;SDS011;2376;53.544;10.226;2023-10-31T10:56:44;0.80;;;0.80;;
4724;SDS011;2376;53.544;10.226;2023-10-31T10:59:18;1.30;;;1.20;;
4724;SDS011;2376;53.544;10.226;2023-10-31T11:01:48;0.80;;;0.80;;
4724;SDS011;2376;53.544;10.226;2023-10-31T11:04:16;0.80;;;0.80;;
4724;SDS011;2376;53.544;10.226;2023-10-31T11:06:43;7.80;;;1.10;;
4724;SDS011;2376;53.544;10.226;2023-10-31T11:09:11;0.70;;;0.70;;
4724;SDS011;2376;53.544;10.226;2023-10-31T11:11:39;0.97;;;0.80;;
4724;SDS011;2376;53.544;10.226;2023-10-31T11:14:14;1.73;;;0.83;;
4724;SDS011;2376;53.544;10.226;2023-10-31T11:16:43;3.70;;;1.10;;
4724;SDS011;2376;53.544;10.226;2023-10-31T11:19:13;1.00;;;0.90;;
4724;SDS011;2376;53.544;10.226;2023-10-31T11:21:52;1.00;;;0.90;;
4724;SDS011;2376;53.544;10.226;2023-10-31T11:24:20;0.73;;;0.73;;
4724;SDS011;2376;53.544;10.226;2023-10-31T11:26:50;0.87;;;0.70;;
4724;SDS011;2376;53.544;10.226;2023-10-31T11:29:18;1.20;;;1.20;;
4724;SDS011;2376;53.544;10.226;2023-10-31T11:31:46;0.97;;;0.80;;
4724;SDS011;2376;53.544;10.226;2023-10-31T11:34:15;1.33;;;1.00;;
4724;SDS011;2376;53.544;10.226;2023-10-31T11:36:44;0.70;;;0.70;;
4724;SDS011;2376;53.544;10.226;2023-10-31T11:39:11;2.90;;;1.00;;
4724;SDS011;2376;53.544;10.226;2023-10-31T11:41:39;0.80;;;0.80;;
4724;SDS011;2376;53.544;10.226;2023-10-31T11:44:06;0.87;;;0.87;;
4724;SDS011;2376;53.544;10.226;2023-10-31T11:46:34;2.03;;;1.27;;
4724;SDS011;2376;53.544;10.226;2023-10-31T11:49:01;1.70;;;1.30;;
4724;SDS011;2376;53.544;10.226;2023-10-31T11:51:30;0.90;;;0.90;;
4724;SDS011;2376;53.544;10.226;2023-10-31T11:53:57;1.30;;;1.20;;
4724;SDS011;2376;53.544;10.226;2023-10-31T11:56:25;3.10;;;1.30;;
4724;SDS011;2376;53.544;10.226;2023-10-31T11:58:55;1.40;;;1.30;;
4724;SDS011;2376;53.544;10.226;2023-10-31T12:01:27;3.57;;;1.20;;
4724;SDS011;2376;53.544;10.226;2023-10-31T12:03:55;2.40;;;1.37;;
4724;SDS011;2376;53.544;10.226;2023-10-31T12:06:22;1.70;;;1.60;;
4724;SDS011;2376;53.544;10.226;2023-10-31T12:08:49;4.97;;;1.30;;
4724;SDS011;2376;53.544;10.226;2023-10-31T12:11:16;1.50;;;1.40;;
4724;SDS011;2376;53.544;10.226;2023-10-31T12:13:52;3.63;;;1.87;;
4724;SDS011;2376;53.544;10.226;2023-10-31T12:16:22;1.37;;;1.27;;
4724;SDS011;2376;53.544;10.226;2023-10-31T12:18:57;1.63;;;1.53;;
4724;SDS011;2376;53.544;10.226;2023-10-31T12:21:34;1.27;;;1.27;;
4724;SDS011;2376;53.544;10.226;2023-10-31T12:24:04;1.90;;;1.80;;
4724;SDS011;2376;53.544;10.226;2023-10-31T12:26:32;1.80;;;1.70;;
4724;SDS011;2376;53.544;10.226;2023-10-31T12:29:06;1.63;;;1.53;;
4724;SDS011;2376;53.544;10.226;2023-10-31T12:31:34;2.07;;;1.97;;
4724;SDS011;2376;53.544;10.226;2023-10-31T12:34:05;1.80;;;1.70;;
4724;SDS011;2376;53.544;10.226;2023-10-31T12:36:32;2.37;;;2.17;;
4724;SDS011;2376;53.544;10.226;2023-10-31T12:39:01;1.97;;;1.87;;
4724;SDS011;2376;53.544;10.226;2023-10-31T12:41:28;1.30;;;1.20;;
4724;SDS011;2376;53.544;10.226;2023-10-31T12:43:56;2.07;;;1.90;;
4724;SDS011;2376;53.544;10.226;2023-10-31T12:46:23;1.83;;;1.73;;
4724;SDS011;2376;53.544;10.226;2023-10-31T12:48:50;1.60;;;1.50;;
4724;SDS011;2376;53.544;10.226;2023-10-31T12:51:19;1.40;;;1.30;;
4724;SDS011;2376;53.544;10.226;2023-10-31T12:53:48;1.20;;;1.20;;
4724;SDS011;2376;53.544;10.226;2023-10-31T12:59:04;1.73;;;1.00;;
4724;SDS011;2376;53.544;10.226;2023-10-31T13:01:32;1.20;;;1.20;;
4724;SDS011;2376;53.544;10.226;2023-10-31T13:04:00;1.80;;;1.27;;
4724;SDS011;2376;53.544;10.226;2023-10-31T13:06:28;1.77;;;1.67;;
4724;SDS011;2376;53.544;10.226;2023-10-31T13:08:55;1.30;;;1.20;;
4724;SDS011;2376;53.544;10.226;2023-10-31T13:11:22;1.30;;;1.20;;
4724;SDS011;2376;53.544;10.226;2023-10-31T13:13:50;1.13;;;1.00;;
4724;SDS011;2376;53.544;10.226;2023-10-31T13:16:17;1.27;;;1.27;;
4724;SDS011;2376;53.544;10.226;2023-10-31T13:18:44;1.10;;;1.10;;
4724;SDS011;2376;53.544;10.226;2023-10-31T13:21:11;0.80;;;0.80;;
4724;SDS011;2376;53.544;10.226;2023-10-31T13:23:41;2.13;;;1.20;;
4724;SDS011;2376;53.544;10.226;2023-10-31T13:26:10;0.80;;;0.80;;
4724;SDS011;2376;53.544;10.226;2023-10-31T13:28:37;1.10;;;1.00;;
4724;SDS011;2376;53.544;10.226;2023-10-31T13:31:04;0.90;;;0.90;;
4724;SDS011;2376;53.544;10.226;2023-10-31T13:33:31;1.20;;;1.10;;
4724;SDS011;2376;53.544;10.226;2023-10-31T13:35:58;1.87;;;1.30;;
4724;SDS011;2376;53.544;10.226;2023-10-31T13:38:25;0.80;;;0.80;;
4724;SDS011;2376;53.544;10.226;2023-10-31T13:40:53;1.83;;;1.10;;
4724;SDS011;2376;53.544;10.226;2023-10-31T13:43:20;1.13;;;1.03;;
4724;SDS011;2376;53.544;10.226;2023-10-31T13:45:47;2.90;;;1.23;;
4724;SDS011;2376;53.544;10.226;2023-10-31T13:48:13;1.70;;;1.10;;
4724;SDS011;2376;53.544;10.226;2023-10-31T13:50:40;1.70;;;1.03;;
4724;SDS011;2376;53.544;10.226;2023-10-31T13:53:07;0.93;;;0.80;;
4724;SDS011;2376;53.544;10.226;2023-10-31T13:55:34;2.00;;;1.20;;
4724;SDS011;2376;53.544;10.226;2023-10-31T13:58:03;2.90;;;1.27;;
4724;SDS011;2376;53.544;10.226;2023-10-31T14:00:30;1.33;;;1.33;;
4724;SDS011;2376;53.544;10.226;2023-10-31T14:02:56;2.67;;;1.80;;
4724;SDS011;2376;53.544;10.226;2023-10-31T14:05:23;2.73;;;1.40;;
4724;SDS011;2376;53.544;10.226;2023-10-31T14:07:50;2.17;;;1.90;;
4724;SDS011;2376;53.544;10.226;2023-10-31T14:10:17;2.43;;;1.67;;
4724;SDS011;2376;53.544;10.226;2023-10-31T14:12:44;1.90;;;1.80;;
4724;SDS011;2376;53.544;10.226;2023-10-31T14:15:13;6.00;;;1.70;;
4724;SDS011;2376;53.544;10.226;2023-10-31T14:17:40;1.70;;;1.60;;
4724;SDS011;2376;53.544;10.226;2023-10-31T14:20:07;1.63;;;1.53;;
4724;SDS011;2376;53.544;10.226;2023-10-31T14:22:34;1.20;;;1.10;;
4724;SDS011;2376;53.544;10.226;2023-10-31T14:25:02;1.50;;;1.40;;
4724;SDS011;2376;53.544;10.226;2023-10-31T14:27:29;1.17;;;1.17;;
4724;SDS011;2376;53.544;10.226;2023-10-31T14:29:56;2.90;;;1.40;;
4724;SDS011;2376;53.544;10.226;2023-10-31T14:32:25;1.60;;;1.50;;
4724;SDS011;2376;53.544;10.226;2023-10-31T14:34:51;1.67;;;1.57;;
4724;SDS011;2376;53.544;10.226;2023-10-31T14:37:18;3.07;;;1.50;;
4724;SDS011;2376;53.544;10.226;2023-10-31T14:39:45;1.90;;;1.67;;
4724;SDS011;2376;53.544;10.226;2023-10-31T14:42:11;1.37;;;1.27;;
4724;SDS011;2376;53.544;10.226;2023-10-31T14:44:38;1.60;;;1.50;;
4724;SDS011;2376;53.544;10.226;2023-10-31T14:47:05;1.20;;;1.20;;
4724;SDS011;2376;53.544;10.226;2023-10-31T14:49:33;1.37;;;0.93;;
4724;SDS011;2376;53.544;10.226;2023-10-31T14:51:59;1.03;;;1.03;;
4724;SDS011;2376;53.544;10.226;2023-10-31T14:54:28;1.00;;;0.90;;
4724;SDS011;2376;53.544;10.226;2023-10-31T14:56:56;1.83;;;1.00;;
4724;SDS011;2376;53.544;10.226;2023-10-31T14:59:23;1.60;;;1.00;;
4724;SDS011;2376;53.544;10.226;2023-10-31T15:01:49;1.20;;;1.10;;